Главная страница
METAR-TAF:

METAR-TAF

Аэропорты :

Рабат, Марокко

широта: 34-03N, долгота: 006-46W, высота над уровнем моря: 84 м

Текущие метеонаблюдения

Эта сводка был подготовлена 18 минут назад, в 11:30 UTC
Ветер 8 Узел от северо-западный, изменяющийся между западный и северный
Температура 24°C
Влажность 65%
Давление 1014 hPa
Видимость: 6000 м
небольшая облачность на высоте 1300 фута
Отдельные облака на высоте 2000 фута

METAR: GMME 171130Z 31008KT 270V360 6000 FEW013 SCT020 24/17 Q1014 NOSIG

Время: 12:48 (11:48 UTC)

Прогноз

Эта сводка был подготовлена 48 минут назад, в 11:00 UTC
Прогноз действительный с 17-го 12 UTC до 18-го 18 UTC
Ветер 11 Узел от северо-западный
Видимость: 8000 м
Отдельные облака на высоте 2000 фута
временами
С 17-го 21 UTC до 18-го 06 UTC
Ветер 6 Узел от западный-юго-западный

TAF: GMME 171100Z 1712/1818 32011KT 8000 SCT020 TEMPO 1721/1806 24006KT

Метеонаблюдения и прогнозы для более 4000 аэропортов (сводки METAR и TAF).

Имеющиеся станции представлены на карте желтыми и красными точками.

Чтобы увидеть название станции, наведите на нее мышь.

Затем щелкните, чтобы увидеть метеонаблюдения и метеопрогнозы.

Управление картой: чтобы увеличить масштаб, щелкните зеленые кнопки с черным крестиком; чтобы уменьшить масштаб, щелкните зеленую кнопку с тире; для просмотра соседних карт щелкайте зеленые стрелки.


METAR-TAF: